Welcome to Northern Hawkes Bay. New Zealand.
PWS Header
      nz Flag



Hit Counter


W3C Valid W3C Valid logo


    Wairoa

Select any of the Stations below to visit their websites.










Historic Data from Weather Underground
Select the location of interest below. Wairoa is the default. Please have patience, this Data is slow to load in.
Northern Hawkes Bay Historical Data
Daily Summary for July 4, 2017 Units:  English    Metric   Both
« Previous Day
Next Day »
Daily Weekly Monthly Yearly Custom
  High: Low: Average:
Temperature: 68.7 °F 41.7 °F 50.9 °F
Dew Point: 51.8 °F 41.2 °F 45.3 °F
Humidity: 99% 45% 84%
Wind Speed: 9.2mph 0mph 2.8mph
Wind Gust: 13mph - -
Wind- - NW
Pressure: 29.9 in 29.8 in -
Precipitation: 0 in    
Historical Graphs
 
 
Tabular Data for July 4, 2017
Time Temperature Dew Point Pressure Wind Wind Speed Wind Gust Humidity Rainfall Rate (Hourly) solar
00:01 50.7 °F 49.3 °F 29.8 in West 3.1 mph 6 mph 95% 0 in 0 W/m2
00:06 50.5 °F 48.9 °F 29.8 in West 3.1 mph 6 mph 94% 0 in 0 W/m2
00:11 50.5 °F 48.9 °F 29.8 in West 2.2 mph 6 mph 94% 0 in 0 W/m2
00:14 50.4 °F 48.7 °F 29.8 in West 2.2 mph 4.5 mph 94% 0 in 0 W/m2
00:19 50.4 °F 48.7 °F 29.8 in WNW 2.2 mph 4.5 mph 94% 0 in 0 W/m2
00:24 50.4 °F 48.7 °F 29.8 in NW 1.6 mph 4.5 mph 94% 0 in 0 W/m2
00:29 50.4 °F 48.7 °F 29.8 in NW 0.7 mph 3.8 mph 94% 0 in 0 W/m2
00:34 50.4 °F 48.7 °F 29.8 in NNW 2.2 mph 3.8 mph 94% 0 in 0 W/m2
00:39 50.2 °F 48.6 °F 29.8 in NNW 2.2 mph 3.8 mph 94% 0 in 0 W/m2
00:44 50.2 °F 48.6 °F 29.8 in NNW 3.1 mph 4.5 mph 94% 0 in 0 W/m2
00:49 50 °F 48.4 °F 29.8 in NW 1.6 mph 4.5 mph 94% 0 in 0 W/m2
00:54 49.8 °F 48.4 °F 29.8 in NW 2.2 mph 4.5 mph 95% 0 in 0 W/m2
00:59 49.6 °F 48.4 °F 29.8 in NW 2.2 mph 3.1 mph 95% 0 in 0 W/m2
01:04 49.5 °F 48 °F 29.8 in NW 3.1 mph 3.8 mph 95% 0 in 0 W/m2
01:07 49.5 °F 48 °F 29.8 in NW 1.6 mph 3.8 mph 95% 0 in 0 W/m2
01:12 49.3 °F 48.2 °F 29.8 in NW 2.2 mph 3.8 mph 96% 0 in 0 W/m2
01:17 49.3 °F 48.2 °F 29.8 in NNW 1.6 mph 3.8 mph 96% 0 in 0 W/m2
01:22 49.3 °F 48.2 °F 29.8 in NNW 2.2 mph 3.8 mph 96% 0 in 0 W/m2
01:27 49.5 °F 48.4 °F 29.8 in North 2.2 mph 3.8 mph 96% 0 in 0 W/m2
01:32 49.5 °F 48.4 °F 29.8 in North 2.2 mph 4.5 mph 96% 0 in 0 W/m2
01:37 49.6 °F 48.6 °F 29.8 in North 3.1 mph 5.4 mph 96% 0 in 0 W/m2
01:42 49.6 °F 48.6 °F 29.8 in North 3.1 mph 5.4 mph 96% 0 in 0 W/m2
01:47 49.6 °F 48.6 °F 29.8 in North 3.1 mph 4.5 mph 96% 0 in 0 W/m2
01:52 49.6 °F 48.6 °F 29.8 in NNW 3.1 mph 4.5 mph 96% 0 in 0 W/m2
01:57 49.6 °F 48.6 °F 29.8 in NNW 3.1 mph 4.5 mph 96% 0 in 0 W/m2
02:02 49.5 °F 48.4 °F 29.8 in NW 2.2 mph 4.5 mph 96% 0 in 0 W/m2
02:07 49.5 °F 48.4 °F 29.8 in NW 1.6 mph 4.5 mph 96% 0 in 0 W/m2
02:12 49.5 °F 48.4 °F 29.8 in NNW 2.2 mph 3.8 mph 96% 0 in 0 W/m2
02:17 49.3 °F 48.2 °F 29.8 in NNW 1.6 mph 3.8 mph 96% 0 in 0 W/m2
02:22 49.3 °F 48.2 °F 29.8 in NNW 2.2 mph 3.8 mph 96% 0 in 0 W/m2
02:27 49.3 °F 48.2 °F 29.8 in NW 2.2 mph 3.8 mph 96% 0 in 0 W/m2
02:32 49.1 °F 48 °F 29.8 in NW 2.2 mph 3.8 mph 96% 0 in 0 W/m2
02:37 49.1 °F 48 °F 29.8 in NW 2.2 mph 3.8 mph 96% 0 in 0 W/m2
02:42 48.9 °F 47.8 °F 29.8 in NW 2.2 mph 3.8 mph 96% 0 in 0 W/m2
02:47 48.7 °F 47.7 °F 29.8 in NW 2.2 mph 3.8 mph 96% 0 in 0 W/m2
02:52 48.4 °F 47.3 °F 29.8 in NW 1.6 mph 3.8 mph 96% 0 in 0 W/m2
02:57 48.2 °F 47.1 °F 29.8 in NW 2.2 mph 3.8 mph 96% 0 in 0 W/m2
03:02 47.8 °F 46.9 °F 29.8 in NW 1.6 mph 3.1 mph 97% 0 in 0 W/m2
03:07 47.7 °F 46.9 °F 29.8 in NNW 2.2 mph 3.1 mph 97% 0 in 0 W/m2
03:12 47.3 °F 46.6 °F 29.8 in NNW 2.2 mph 3.1 mph 97% 0 in 0 W/m2
03:17 47.1 °F 46.2 °F 29.8 in NNW 1.6 mph 3.1 mph 97% 0 in 0 W/m2
03:22 46.9 °F 46 °F 29.8 in NNW 2.2 mph 3.8 mph 97% 0 in 0 W/m2
03:27 46.8 °F 46 °F 29.8 in North 1.6 mph 3.8 mph 97% 0 in 0 W/m2
03:32 46.6 °F 46 °F 29.8 in North 0.7 mph 3.8 mph 98% 0 in 0 W/m2
03:37 46.4 °F 45.9 °F 29.8 in Calm   3.8 mph 98% 0 in 0 W/m2
03:42 46.2 °F 45.3 °F 29.8 in North 1.6 mph 2.2 mph 97% 0 in 0 W/m2
03:47 46.2 °F 45.3 °F 29.8 in NW 2.2 mph 3.1 mph 97% 0 in 0 W/m2
03:52 46 °F 45.1 °F 29.8 in NW 1.6 mph 3.1 mph 97% 0 in 0 W/m2
03:57 45.9 °F 45.1 °F 29.8 in NNW 2.2 mph 3.1 mph 97% 0 in 0 W/m2
04:02 45.5 °F 44.8 °F 29.8 in NW 1.6 mph 3.1 mph 97% 0 in 0 W/m2
04:07 45.3 °F 44.4 °F 29.8 in NW 1.6 mph 3.1 mph 97% 0 in 0 W/m2
04:12 45.1 °F 44.2 °F 29.8 in NW 0.7 mph 3.1 mph 97% 0 in 0 W/m2
04:17 45 °F 44.2 °F 29.8 in NNW 1.6 mph 3.1 mph 97% 0 in 0 W/m2
04:22 45 °F 44.2 °F 29.8 in NNW 2.2 mph 3.1 mph 97% 0 in 0 W/m2
04:27 45 °F 44.2 °F 29.8 in NNW 1.6 mph 3.1 mph 97% 0 in 0 W/m2
04:32 44.8 °F 44.1 °F 29.8 in Calm   3.1 mph 97% 0 in 0 W/m2
04:37 44.6 °F 43.9 °F 29.8 in NE 0.7 mph 3.1 mph 97% 0 in 0 W/m2
04:43 44.2 °F 43.7 °F 29.8 in NE 0.7 mph 1.6 mph 98% 0 in 0 W/m2
04:48 44.4 °F 43.9 °F 29.8 in Calm   2.2 mph 98% 0 in 0 W/m2
04:58 44.2 °F 43.7 °F 29.8 in NNW 0.7 mph 1.6 mph 98% 0 in 0 W/m2
05:03 44.2 °F 43.7 °F 29.8 in NW 0.7 mph 1.6 mph 98% 0 in 0 W/m2
05:08 43.9 °F 43.3 °F 29.8 in NW 1.6 mph 2.2 mph 98% 0 in 0 W/m2
05:13 43.9 °F 43.3 °F 29.8 in NW 1.6 mph 3.1 mph 98% 0 in 0 W/m2
05:18 43.7 °F 43.2 °F 29.8 in NNW 1.6 mph 3.1 mph 98% 0 in 0 W/m2
05:24 43.3 °F 42.8 °F 29.8 in NNW 2.2 mph 3.1 mph 98% 0 in 0 W/m2
05:29 43.5 °F 43 °F 29.8 in NW 2.2 mph 3.1 mph 98% 0 in 0 W/m2
05:34 43.5 °F 43 °F 29.8 in NW 2.2 mph 4.5 mph 98% 0 in 0 W/m2
05:39 43.5 °F 43 °F 29.8 in NW 0.7 mph 4.5 mph 98% 0 in 0 W/m2
05:44 43.3 °F 42.8 °F 29.8 in NW 1.6 mph 4.5 mph 98% 0 in 0 W/m2
05:49 43.3 °F 42.8 °F 29.8 in NW 2.2 mph 3.1 mph 98% 0 in 0 W/m2
05:54 43 °F 42.4 °F 29.8 in NW 3.1 mph 4.5 mph 98% 0 in 0 W/m2
05:59 43 °F 42.4 °F 29.8 in NNW 3.8 mph 5.4 mph 98% 0 in 0 W/m2
06:04 43.3 °F 42.8 °F 29.8 in NNW 1.6 mph 5.4 mph 98% 0 in 0 W/m2
06:09 43.2 °F 42.6 °F 29.8 in NW 2.2 mph 5.4 mph 98% 0 in 0 W/m2
06:14 43.2 °F 42.6 °F 29.8 in NW 2.2 mph 3.8 mph 98% 0 in 0 W/m2
06:19 43.3 °F 42.8 °F 29.8 in NW 4.5 mph 6 mph 98% 0 in 0 W/m2
06:24 43.9 °F 43.3 °F 29.8 in NNW 2.2 mph 6 mph 98% 0 in 0 W/m2
06:29 44.1 °F 43.5 °F 29.8 in NNW 0.7 mph 5.4 mph 98% 0 in 0 W/m2
06:34 44.1 °F 43.5 °F 29.8 in North 3.1 mph 4.5 mph 98% 0 in 0 W/m2
06:39 43.5 °F 43 °F 29.8 in NW 3.1 mph 5.4 mph 98% 0 in 0 W/m2
06:44 43.3 °F 42.8 °F 29.8 in NW 3.8 mph 5.4 mph 98% 0 in 0 W/m2
06:49 43.2 °F 42.6 °F 29.8 in NNW 2.2 mph 5.4 mph 98% 0 in 0 W/m2
07:04 42.8 °F 42.3 °F 29.8 in NW 2.2 mph 4.5 mph 98% 0 in 0 W/m2
07:09 42.8 °F 42.3 °F 29.8 in NW 1.6 mph 4.5 mph 98% 0 in 0 W/m2
07:14 42.6 °F 42.4 °F 29.8 in WNW 0.7 mph 4.5 mph 99% 0 in 0 W/m2
07:19 42.6 °F 42.4 °F 29.8 in WNW 1.6 mph 3.1 mph 99% 0 in 0 W/m2
07:24 42.4 °F 42.3 °F 29.8 in NW 1.6 mph 3.1 mph 99% 0 in 0 W/m2
07:29 42.3 °F 42.1 °F 29.8 in NW 1.6 mph 3.8 mph 99% 0 in 0 W/m2
07:34 42.1 °F 41.7 °F 29.8 in NNW 2.2 mph 3.8 mph 99% 0 in 0 W/m2
07:39 42.3 °F 42.1 °F 29.8 in NNW 2.2 mph 4.5 mph 99% 0 in 3 W/m2
07:44 42.4 °F 42.3 °F 29.8 in North 1.6 mph 5.4 mph 99% 0 in 12 W/m2
07:49 42.8 °F 42.3 °F 29.8 in North 3.1 mph 6 mph 98% 0 in 30 W/m2
07:54 43.3 °F 42.8 °F 29.8 in North 3.1 mph 6.9 mph 98% 0 in 42 W/m2
07:59 43.7 °F 43.2 °F 29.8 in North 2.2 mph 6.9 mph 98% 0 in 51 W/m2
08:04 44.2 °F 43.7 °F 29.8 in North 1.6 mph 5.4 mph 98% 0 in 61 W/m2
08:09 44.2 °F 43.7 °F 29.8 in NNW 3.1 mph 5.4 mph 98% 0 in 73 W/m2
08:14 44.2 °F 43.7 °F 29.8 in NNW 3.1 mph 6 mph 98% 0 in 87 W/m2
08:19 44.4 °F 43.9 °F 29.8 in NNW 2.2 mph 6.9 mph 98% 0 in 97 W/m2
08:24 44.8 °F 44.1 °F 29.8 in NW 4.5 mph 6.9 mph 97% 0 in 106 W/m2
08:29 45 °F 44.2 °F 29.8 in NW 4.5 mph 6.9 mph 97% 0 in 115 W/m2
08:46 45.7 °F 45 °F 29.8 in NNW 5.4 mph 8.3 mph 97% 0 in 150 W/m2
08:51 46 °F 45.1 °F 29.8 in NNW 6 mph 9.8 mph 97% 0 in 159 W/m2
08:56 46.6 °F 46.2 °F 29.8 in NNW 6 mph 9.8 mph 99% 0 in 169 W/m2
09:01 46.6 °F 46.2 °F 29.8 in NNW 9.2 mph 9.8 mph 99% 0 in 177 W/m2
09:06 46.6 °F 46.2 °F 29.8 in NNW 4.5 mph 9.8 mph 99% 0 in 185 W/m2
09:11 46.8 °F 46.6 °F 29.8 in NW 7.6 mph 11.4 mph 99% 0 in 191 W/m2
09:16 46.8 °F 46.6 °F 29.8 in NW 6.9 mph 11.4 mph 99% 0 in 197 W/m2
09:21 47.1 °F 46.9 °F 29.8 in NW 9.2 mph 13 mph 99% 0 in 201 W/m2
09:26 47.1 °F 46.9 °F 29.8 in NW 6 mph 13 mph 99% 0 in 206 W/m2
09:32 48 °F 47.5 °F 29.8 in NW 6 mph 10.7 mph 98% 0 in 209 W/m2
09:37 48.6 °F 47.5 °F 29.8 in NW 5.4 mph 9.8 mph 96% 0 in 212 W/m2
09:42 49.1 °F 48 °F 29.8 in NNW 5.4 mph 9.8 mph 96% 0 in 201 W/m2
09:47 49.5 °F 48 °F 29.8 in NNW 3.1 mph 9.2 mph 95% 0 in 127 W/m2
09:52 50 °F 48 °F 29.8 in NNW 6.9 mph 11.4 mph 93% 0 in 107 W/m2
09:57 50.4 °F 47.8 °F 29.8 in NW 5.4 mph 11.4 mph 91% 0 in 82 W/m2
10:02 50.7 °F 47.7 °F 29.8 in NW 3.8 mph 10.7 mph 89% 0 in 70 W/m2
10:07 51.4 °F 48.4 °F 29.8 in NNW 5.4 mph 10.7 mph 89% 0 in 72 W/m2
10:12 51.6 °F 47.7 °F 29.8 in North 6 mph 10.7 mph 86% 0 in 67 W/m2
10:17 52 °F 47.7 °F 29.8 in North 6 mph 10.7 mph 85% 0 in 61 W/m2
10:34 53.2 °F 47.8 °F 29.8 in NNW 6 mph 10.7 mph 82% 0 in 55 W/m2
10:44 53.6 °F 47.8 °F 29.8 in NNW 4.5 mph 10.7 mph 81% 0 in 50 W/m2
10:49 53.6 °F 47.7 °F 29.8 in North 3.8 mph 10.7 mph 80% 0 in 49 W/m2
10:54 54.1 °F 48.4 °F 29.8 in North 2.2 mph 10.7 mph 81% 0 in 48 W/m2
10:59 54.3 °F 48.4 °F 29.8 in North 4.5 mph 7.6 mph 80% 0 in 48 W/m2
11:17 55.6 °F 48.7 °F 29.8 in North 5.4 mph 9.2 mph 78% 0 in 48 W/m2
11:22 55.8 °F 48.9 °F 29.8 in NNW 3.8 mph 9.2 mph 78% 0 in 48 W/m2
11:28 55.8 °F 48.9 °F 29.8 in NNW 4.5 mph 9.8 mph 78% 0 in 47 W/m2
11:33 56.5 °F 49.5 °F 29.8 in NNW 4.5 mph 9.8 mph 77% 0 in 47 W/m2
11:38 56.8 °F 49.6 °F 29.8 in NNW 4.5 mph 9.2 mph 77% 0 in 47 W/m2
11:43 57.6 °F 50.2 °F 29.8 in NNW 4.5 mph 6.9 mph 76% 0 in 47 W/m2
11:48 58.5 °F 50.5 °F 29.8 in NNW 5.4 mph 6.9 mph 75% 0 in 47 W/m2
11:53 58.1 °F 49.8 °F 29.8 in NNW 3.1 mph 7.6 mph 74% 0 in 47 W/m2
11:58 58.5 °F 50.2 °F 29.8 in NW 3.1 mph 7.6 mph 74% 0 in 47 W/m2
12:03 58.8 °F 50.5 °F 29.8 in NNW 4.5 mph 7.6 mph 74% 0 in 47 W/m2
12:09 59 °F 50 °F 29.8 in NNW 3.1 mph 7.6 mph 72% 0 in 47 W/m2
12:14 59.5 °F 50.5 °F 29.8 in NNW 3.8 mph 7.6 mph 72% 0 in 47 W/m2
12:19 60.4 °F 51.8 °F 29.8 in NNW 3.1 mph 7.6 mph 73% 0 in 47 W/m2
12:24 60.6 °F 51.3 °F 29.8 in NNW 4.5 mph 6.9 mph 71% 0 in 47 W/m2
12:29 61 °F 50.7 °F 29.8 in NNW 5.4 mph 6.9 mph 69% 0 in 48 W/m2
12:34 60.8 °F 50.5 °F 29.8 in NNW 4.5 mph 8.3 mph 69% 0 in 48 W/m2
12:39 61.5 °F 51.3 °F 29.8 in NNW 2.2 mph 8.3 mph 69% 0 in 48 W/m2
12:44 61.7 °F 50.2 °F 29.8 in NNW 6 mph 9.2 mph 66% 0 in 49 W/m2
12:49 61.5 °F 50.5 °F 29.8 in NNW 3.8 mph 9.2 mph 67% 0 in 50 W/m2
12:54 61.9 °F 50 °F 29.8 in North 3.8 mph 8.3 mph 65% 0 in 51 W/m2
12:59 62.1 °F 49.8 °F 29.8 in NNW 3.8 mph 7.6 mph 64% 0 in 52 W/m2
13:04 62.1 °F 49.8 °F 29.8 in NW 4.5 mph 8.3 mph 64% 0 in 52 W/m2
13:09 62.4 °F 49.6 °F 29.8 in NW 6.9 mph 10.7 mph 63% 0 in 53 W/m2
13:14 62.4 °F 49.3 °F 29.8 in NNW 5.4 mph 10.7 mph 62% 0 in 55 W/m2
13:19 62.8 °F 48.7 °F 29.8 in NNW 3.8 mph 9.8 mph 60% 0 in 57 W/m2
13:24 63.1 °F 48 °F 29.8 in North 4.5 mph 8.3 mph 58% 0 in 59 W/m2
13:29 63.3 °F 47.8 °F 29.8 in North 5.4 mph 7.6 mph 57% 0 in 61 W/m2
13:34 63.3 °F 47.8 °F 29.8 in NNW 3.1 mph 8.3 mph 57% 0 in 65 W/m2
13:39 63.3 °F 48.4 °F 29.8 in NNW 3.1 mph 8.3 mph 58% 0 in 67 W/m2
13:44 63.7 °F 49.1 °F 29.8 in NNW 5.4 mph 8.3 mph 59% 0 in 68 W/m2
13:49 63.9 °F 48.7 °F 29.8 in NNW 4.5 mph 8.3 mph 58% 0 in 70 W/m2
13:54 63.9 °F 47.8 °F 29.8 in NNW 4.5 mph 8.3 mph 56% 0 in 77 W/m2
13:59 64.2 °F 48.7 °F 29.8 in NNW 5.4 mph 8.3 mph 57% 0 in 112 W/m2
14:04 63.9 °F 46.4 °F 29.8 in NNW 2.2 mph 7.6 mph 53% 0 in 168 W/m2
14:09 64.4 °F 47.8 °F 29.8 in NNW 1.6 mph 7.6 mph 55% 0 in 205 W/m2
14:14 64 °F 46.6 °F 29.8 in NNW 2.2 mph 7.6 mph 53% 0 in 232 W/m2
14:19 63.9 °F 46.4 °F 29.8 in NNW 3.8 mph 9.2 mph 53% 0 in 238 W/m2
14:24 63.3 °F 46.4 °F 29.8 in NNW 3.1 mph 9.8 mph 54% 0 in 214 W/m2
14:29 63.7 °F 45.7 °F 29.8 in NNW 3.8 mph 9.8 mph 52% 0 in 203 W/m2
14:34 63.3 °F 45.9 °F 29.8 in NNW 5.4 mph 7.6 mph 53% 0 in 177 W/m2
14:39 63.3 °F 45.9 °F 29.8 in NNW 3.1 mph 7.6 mph 53% 0 in 175 W/m2
14:44 63.1 °F 45.1 °F 29.8 in NNW 1.6 mph 6.9 mph 52% 0 in 186 W/m2
14:49 64 °F 45.7 °F 29.8 in NW 5.4 mph 6.9 mph 51% 0 in 180 W/m2
14:54 63.5 °F 44.1 °F 29.8 in NW 3.1 mph 6.9 mph 49% 0 in 166 W/m2
14:59 63.7 °F 44.8 °F 29.8 in NW 3.8 mph 6.9 mph 50% 0 in 184 W/m2
15:04 64.6 °F 44.4 °F 29.8 in NNW 2.2 mph 5.4 mph 48% 0 in 170 W/m2
15:09 64.6 °F 43.9 °F 29.8 in NNW 3.1 mph 5.4 mph 47% 0 in 167 W/m2
15:14 63.9 °F 43.9 °F 29.8 in NNW 1.6 mph 5.4 mph 48% 0 in 105 W/m2
15:19 63 °F 44.1 °F 29.8 in NNW 1.6 mph 5.4 mph 50% 0 in 75 W/m2
15:24 61.9 °F 44.1 °F 29.8 in NNW 3.8 mph 4.5 mph 52% 0 in 58 W/m2
15:29 61.2 °F 43.9 °F 29.8 in North 0.7 mph 4.5 mph 53% 0 in 127 W/m2
15:34 63 °F 45.1 °F 29.8 in Calm   4.5 mph 52% 0 in 130 W/m2
15:39 65.8 °F 46.8 °F 29.8 in NE 0.7 mph 3.1 mph 50% 0 in 124 W/m2
15:44 68.2 °F 46 °F 29.8 in Calm   1.6 mph 45% 0 in 114 W/m2
15:49 68.7 °F 46.6 °F 29.8 in South 0.7 mph 3.1 mph 45% 0 in 103 W/m2
15:54 67.3 °F 50.2 °F 29.8 in SSE 2.2 mph 4.5 mph 54% 0 in 91 W/m2
15:59 65.1 °F 50 °F 29.8 in SE 3.1 mph 6 mph 58% 0 in 79 W/m2
16:04 63.9 °F 50.5 °F 29.8 in ESE 1.6 mph 6 mph 62% 0 in 68 W/m2
16:09 64.6 °F 51.3 °F 29.8 in Calm   6 mph 62% 0 in 56 W/m2
16:14 65.5 °F 51.3 °F 29.8 in Calm   2.2 mph 60% 0 in 47 W/m2
16:24 64.8 °F 48.7 °F 29.8 in NNW 3.1 mph 5.4 mph 56% 0 in 35 W/m2
16:26 63.3 °F 45.9 °F 29.8 in NNW 6.9 mph 9.2 mph 53% 0 in 32 W/m2
16:31 61.5 °F 45.1 °F 29.8 in North 5.4 mph 9.2 mph 55% 0 in 26 W/m2
16:36 60.3 °F 44.4 °F 29.8 in NNW 4.5 mph 9.2 mph 56% 0 in 21 W/m2
16:41 59.5 °F 44.8 °F 29.8 in NW 3.8 mph 9.2 mph 58% 0 in 16 W/m2
16:46 59 °F 45.1 °F 29.8 in NW 3.8 mph 6.9 mph 60% 0 in 7 W/m2
16:51 57.7 °F 44.4 °F 29.8 in NW 9.2 mph 12.1 mph 61% 0 in 4 W/m2
17:01 56.8 °F 43.5 °F 29.8 in NNW 5.4 mph 12.1 mph 61% 0 in 0 W/m2
17:06 56.7 °F 44.2 °F 29.8 in NNW 3.8 mph 9.8 mph 63% 0 in 0 W/m2
17:11 56.1 °F 44.4 °F 29.8 in NNW 3.1 mph 7.6 mph 65% 0 in 0 W/m2
17:16 55.6 °F 44.1 °F 29.8 in NNW 3.1 mph 6.9 mph 65% 0 in 0 W/m2
17:21 55.4 °F 43.9 °F 29.8 in NNW 3.8 mph 6.9 mph 65% 0 in 0 W/m2
17:26 55.2 °F 43.7 °F 29.8 in NNW 3.8 mph 8.3 mph 65% 0 in 0 W/m2
17:31 55.2 °F 43.7 °F 29.8 in NNW 4.5 mph 8.3 mph 65% 0 in 0 W/m2
17:36 55 °F 43.5 °F 29.8 in NNW 4.5 mph 7.6 mph 65% 0 in 0 W/m2
17:41 54.7 °F 43.2 °F 29.8 in NNW 3.1 mph 7.6 mph 65% 0 in 0 W/m2
17:46 54.3 °F 43.2 °F 29.8 in North 2.2 mph 6 mph 66% 0 in 0 W/m2
17:51 54 °F 43.3 °F 29.8 in North 2.2 mph 6 mph 67% 0 in 0 W/m2
17:56 53.4 °F 43.9 °F 29.8 in North 3.1 mph 4.5 mph 70% 0 in 0 W/m2
18:01 52.9 °F 43.7 °F 29.8 in North 3.1 mph 5.4 mph 71% 0 in 0 W/m2
18:06 52.7 °F 43.9 °F 29.8 in NW 3.8 mph 6 mph 72% 0 in 0 W/m2
18:11 52.7 °F 43.9 °F 29.8 in NNW 3.8 mph 6 mph 72% 0 in 0 W/m2
18:16 52.2 °F 43.3 °F 29.8 in NNW 3.8 mph 6 mph 72% 0 in 0 W/m2
18:21 52 °F 43.5 °F 29.8 in NW 3.8 mph 6 mph 73% 0 in 0 W/m2
18:26 51.6 °F 43.5 °F 29.8 in NW 2.2 mph 5.4 mph 74% 0 in 0 W/m2
18:31 51.3 °F 43.5 °F 29.8 in NNW 2.2 mph 4.5 mph 75% 0 in 0 W/m2
18:36 50.9 °F 43.5 °F 29.8 in NNW 3.1 mph 4.5 mph 76% 0 in 0 W/m2
18:41 50.7 °F 43.3 °F 29.8 in NW 2.2 mph 4.5 mph 76% 0 in 0 W/m2
18:46 50.5 °F 43.3 °F 29.8 in NNW 2.2 mph 4.5 mph 76% 0 in 0 W/m2
18:51 50.4 °F 43.3 °F 29.8 in NNW 3.1 mph 4.5 mph 77% 0 in 0 W/m2
18:56 50.4 °F 43.3 °F 29.8 in NNW 3.8 mph 5.4 mph 77% 0 in 0 W/m2
19:01 50.4 °F 43.3 °F 29.8 in NNW 3.1 mph 6 mph 77% 0 in 0 W/m2
19:06 50.4 °F 43.3 °F 29.8 in NNW 3.8 mph 6 mph 77% 0 in 0 W/m2
19:11 50.2 °F 43.3 °F 29.8 in NW 3.8 mph 6 mph 77% 0 in 0 W/m2
19:16 49.6 °F 43.2 °F 29.8 in NW 3.1 mph 6 mph 78% 0 in 0 W/m2
19:21 49.3 °F 43.2 °F 29.9 in NW 3.1 mph 5.4 mph 79% 0 in 0 W/m2
19:26 49.1 °F 43.2 °F 29.9 in NW 2.2 mph 4.5 mph 80% 0 in 0 W/m2
19:32 49.1 °F 43.5 °F 29.9 in NW 2.2 mph 4.5 mph 81% 0 in 0 W/m2
19:37 48.9 °F 43.3 °F 29.9 in NW 1.6 mph 4.5 mph 81% 0 in 0 W/m2
19:42 48.9 °F 43.7 °F 29.9 in WNW 1.6 mph 3.8 mph 82% 0 in 0 W/m2
19:48 48.7 °F 43.5 °F 29.9 in West 1.6 mph 3.1 mph 82% 0 in 0 W/m2
19:53 48.7 °F 43.5 °F 29.9 in West 1.6 mph 2.2 mph 82% 0 in 0 W/m2
19:58 48.9 °F 43.7 °F 29.9 in West 2.2 mph 3.1 mph 82% 0 in 0 W/m2
20:03 48.9 °F 43.7 °F 29.9 in West 1.6 mph 3.1 mph 82% 0 in 0 W/m2
20:08 48.7 °F 43.5 °F 29.9 in West 2.2 mph 3.1 mph 82% 0 in 0 W/m2
20:13 48.7 °F 43.9 °F 29.9 in WNW 1.6 mph 3.8 mph 83% 0 in 0 W/m2
20:18 48.7 °F 43.9 °F 29.9 in NW 0.7 mph 3.8 mph 83% 0 in 0 W/m2
20:23 48.6 °F 43.5 °F 29.9 in NW 1.6 mph 3.1 mph 83% 0 in 0 W/m2
20:28 48.4 °F 43.9 °F 29.9 in NW 0.7 mph 3.1 mph 84% 0 in 0 W/m2
20:33 48.2 °F 43.5 °F 29.9 in WNW 1.6 mph 2.2 mph 84% 0 in 0 W/m2
20:38 47.8 °F 43.5 °F 29.9 in NNW 1.6 mph 2.2 mph 85% 0 in 0 W/m2
20:43 47.5 °F 43.2 °F 29.9 in Calm   2.2 mph 85% 0 in 0 W/m2
20:48 46.9 °F 42.6 °F 29.9 in Calm   2.2 mph 85% 0 in 0 W/m2
20:53 46.4 °F 42.1 °F 29.9 in Calm   1.6 mph 85% 0 in 0 W/m2
20:58 45.9 °F 41.5 °F 29.9 in North 1.6 mph 2.2 mph 85% 0 in 0 W/m2
21:03 45.7 °F 41.7 °F 29.9 in North 1.6 mph 2.2 mph 86% 0 in 0 W/m2
21:08 45.3 °F 42.1 °F 29.9 in North 0.7 mph 2.2 mph 88% 0 in 0 W/m2
21:13 45 °F 41.9 °F 29.9 in North 0.7 mph 2.2 mph 89% 0 in 0 W/m2
21:18 44.8 °F 41.7 °F 29.9 in Calm   2.2 mph 89% 0 in 0 W/m2
21:23 44.4 °F 42.1 °F 29.9 in Calm   1.6 mph 91% 0 in 0 W/m2
21:28 44.8 °F 42.3 °F 29.9 in WNW 1.6 mph 2.2 mph 91% 0 in 0 W/m2
21:33 44.6 °F 42.1 °F 29.9 in WSW 1.6 mph 2.2 mph 91% 0 in 0 W/m2
21:38 44.2 °F 42.1 °F 29.9 in SW 0.7 mph 2.2 mph 92% 0 in 0 W/m2
21:43 44.1 °F 41.9 °F 29.9 in West 0.7 mph 2.2 mph 92% 0 in 0 W/m2
21:48 45 °F 42.8 °F 29.9 in WNW 2.2 mph 3.8 mph 92% 0 in 0 W/m2
21:53 45.5 °F 43.5 °F 29.9 in NW 3.1 mph 3.8 mph 93% 0 in 0 W/m2
21:58 45.3 °F 43.2 °F 29.9 in NW 2.2 mph 3.8 mph 92% 0 in 0 W/m2
22:03 44.8 °F 42.3 °F 29.9 in NW 2.2 mph 3.8 mph 91% 0 in 0 W/m2
22:08 44.4 °F 42.3 °F 29.9 in NW 1.6 mph 3.8 mph 92% 0 in 0 W/m2
22:13 44.1 °F 41.9 °F 29.9 in NNW 2.2 mph 3.1 mph 92% 0 in 0 W/m2
22:18 43.7 °F 41.5 °F 29.9 in NNW 2.2 mph 3.8 mph 92% 0 in 0 W/m2
22:23 43.5 °F 41.5 °F 29.9 in NNW 2.2 mph 3.8 mph 93% 0 in 0 W/m2
22:28 43.5 °F 41.5 °F 29.9 in NNW 1.6 mph 3.8 mph 93% 0 in 0 W/m2
22:33 43.3 °F 41.7 °F 29.9 in NNW 1.6 mph 3.1 mph 94% 0 in 0 W/m2
22:38 43.3 °F 41.7 °F 29.9 in NNW 1.6 mph 3.1 mph 94% 0 in 0 W/m2
22:43 43.2 °F 41.5 °F 29.9 in North 1.6 mph 3.1 mph 94% 0 in 0 W/m2
22:48 42.8 °F 41.2 °F 29.9 in North 1.6 mph 3.1 mph 94% 0 in 0 W/m2
22:53 42.6 °F 41.5 °F 29.9 in NNW 2.2 mph 4.5 mph 96% 0 in 0 W/m2
22:58 42.4 °F 41.4 °F 29.9 in NW 3.8 mph 5.4 mph 96% 0 in 0 W/m2
23:03 42.6 °F 41.7 °F 29.9 in NW 3.1 mph 5.4 mph 97% 0 in 0 W/m2
23:08 42.4 °F 41.7 °F 29.9 in NW 2.2 mph 4.5 mph 97% 0 in 0 W/m2
23:13 42.6 °F 41.7 °F 29.9 in NW 2.2 mph 3.8 mph 97% 0 in 0 W/m2
23:18 43 °F 42.3 °F 29.9 in NW 3.1 mph 4.5 mph 97% 0 in 0 W/m2
23:23 43 °F 42.3 °F 29.9 in NW 1.6 mph 4.5 mph 97% 0 in 0 W/m2
23:28 42.6 °F 42.1 °F 29.9 in NNW 2.2 mph 4.5 mph 98% 0 in 0 W/m2
23:33 42.3 °F 41.7 °F 29.9 in North 1.6 mph 3.1 mph 98% 0 in 0 W/m2
23:38 42.1 °F 41.5 °F 29.9 in NNW 2.2 mph 3.1 mph 98% 0 in 0 W/m2
23:43 42.1 °F 41.5 °F 29.9 in NNW 3.1 mph 4.5 mph 98% 0 in 0 W/m2
23:48 41.9 °F 41.4 °F 29.9 in NW 3.1 mph 4.5 mph 98% 0 in 0 W/m2
23:53 41.9 °F 41.4 °F 29.9 in NNW 3.1 mph 4.5 mph 98% 0 in 0 W/m2
23:58 41.7 °F 41.2 °F 29.9 in North 2.2 mph 3.8 mph 98% 0 in 0 W/m2
Northern Hawkes Bay. New Zealand Historic Data
Compliments of Weather Underground - 2 mb